Fall Lake, Minnesota
Current Conditions -  °F | °C
As of 11:13 PM on Friday 28 Nov 2014 (Local Time) from KELO Reporting Station
Overcast Overcast  
Wind Chill:   Ceiling: 3500
Heat Index: 18°   Visibility: 10mi
Dew Point: 16°   Wind: 7mph
Humidity: 93%   Direction: 160°SSE
Pressure: 29.68"   Gusts: NA
Location:  47.9252°N, 91.7976°W
Report Text: KELO 290513Z AUTO 16006KT 10SM SCT028 OVC035 M08/M09 A2968 RMK AO2
Loading
Personal Weather Stations






























Interactive Weather Map New forecast layout! Learn more

10-Day Weather Forecast

Advertisements
Track Severe Weather on mobile